Time;durP1;ratioP1;P1;durP2;ratioP2;P2;SDS_P1;SDS_P2;PMS_P1;PMS_P2;Temp;Humidity;BMP_temperature;BMP_pressure;BME280_temperature;BME280_humidity;BME280_pressure;Samples;Min_cycle;Max_cycle;Signal;HPM_P1;HPM_P2
2022/10/02 00:01:54;;;;;;;0.40;0.40;;;;;;;9.88;100.00;100919.91;5046065;28;20475;-75
2022/10/02 00:04:28;;;;;;;0.40;0.40;;;;;;;9.89;100.00;100916.19;5014553;28;20041;-73
2022/10/02 00:06:57;;;;;;;0.40;0.40;;;;;;;9.88;100.00;100915.34;5028806;28;20069;-73
2022/10/02 00:09:36;;;;;;;0.40;0.40;;;;;;;9.84;100.00;100932.84;5031908;28;20037;-73
2022/10/02 00:12:04;;;;;;;0.40;0.40;;;;;;;9.78;100.00;100921.91;5025147;28;20025;-75
2022/10/02 00:14:35;;;;;;;0.35;0.35;;;;;;;9.74;100.00;100915.16;5010230;28;20446;-72
2022/10/02 00:17:01;;;;;;;0.40;0.40;;;;;;;9.72;100.00;100936.00;5027108;28;20507;-74
2022/10/02 00:19:27;;;;;;;0.35;0.35;;;;;;;9.65;100.00;100928.59;5024979;28;20045;-74
2022/10/02 00:21:59;;;;;;;0.40;0.40;;;;;;;9.80;100.00;100946.75;5011677;28;20025;-73
2022/10/02 00:24:39;;;;;;;0.40;0.40;;;;;;;9.87;100.00;100945.91;5015516;28;20068;-75
2022/10/02 00:27:26;;;;;;;0.40;0.40;;;;;;;9.93;100.00;100965.91;5035014;28;20506;-73
2022/10/02 00:29:54;;;;;;;0.30;0.30;;;;;;;9.90;100.00;100945.59;5035341;28;20033;-75
2022/10/02 00:32:38;;;;;;;0.40;0.40;;;;;;;10.03;100.00;100954.97;5034802;28;20395;-73
2022/10/02 00:35:13;;;;;;;0.40;0.40;;;;;;;10.01;100.00;100949.78;5042421;28;20029;-72
2022/10/02 00:37:45;;;;;;;0.43;0.43;;;;;;;10.10;100.00;100967.56;5061257;28;20039;-73
2022/10/02 00:40:39;;;;;;;0.40;0.40;;;;;;;10.11;100.00;100971.97;5028699;28;20040;-72
2022/10/02 00:43:26;;;;;;;0.40;0.40;;;;;;;10.11;100.00;100963.91;5018653;28;20356;-76
2022/10/02 00:46:24;;;;;;;0.35;0.35;;;;;;;10.08;100.00;100952.63;5028424;28;20095;-73
2022/10/02 00:49:04;;;;;;;0.40;0.40;;;;;;;10.07;100.00;100946.41;5040294;28;20064;-72
2022/10/02 00:51:38;;;;;;;0.40;0.40;;;;;;;10.06;100.00;100949.28;5025421;28;20049;-72
2022/10/02 00:54:44;;;;;;;0.40;0.40;;;;;;;10.04;100.00;100959.34;5027585;28;20029;-77
2022/10/02 00:57:16;;;;;;;0.40;0.40;;;;;;;10.00;100.00;100971.44;5020196;28;20069;-74
2022/10/02 01:00:04;;;;;;;0.40;0.40;;;;;;;9.84;100.00;100964.19;5058567;28;20061;-73
2022/10/02 01:02:29;;;;;;;0.40;0.40;;;;;;;9.77;100.00;100990.88;5048577;28;21472;-73
2022/10/02 01:04:59;;;;;;;0.30;0.30;;;;;;;9.62;100.00;100984.47;5019118;28;22429;-75
2022/10/02 01:07:25;;;;;;;0.30;0.30;;;;;;;9.43;100.00;100977.53;5028030;28;20029;-74
2022/10/02 01:09:50;;;;;;;0.40;0.40;;;;;;;9.27;100.00;100986.38;5017482;28;20091;-74
2022/10/02 01:12:16;;;;;;;0.40;0.40;;;;;;;9.15;100.00;100980.44;5045522;28;20044;-73
2022/10/02 01:14:42;;;;;;;0.40;0.40;;;;;;;8.95;100.00;100954.88;5030266;28;20040;-74
2022/10/02 01:17:28;;;;;;;0.50;0.50;;;;;;;8.92;100.00;100985.56;5026257;28;20084;-73
2022/10/02 01:19:54;;;;;;;0.43;0.43;;;;;;;8.79;100.00;100972.56;5054979;28;20040;-74
2022/10/02 01:22:26;;;;;;;0.40;0.40;;;;;;;8.71;100.00;100983.25;5028091;28;20626;-73
2022/10/02 01:24:51;;;;;;;0.30;0.30;;;;;;;8.68;100.00;100971.97;5019610;28;20439;-73
2022/10/02 01:27:18;;;;;;;0.40;0.40;;;;;;;8.60;100.00;100975.47;5030838;28;20048;-75
2022/10/02 01:29:45;;;;;;;0.40;0.40;;;;;;;8.56;100.00;100969.56;5040162;28;20041;-74
2022/10/02 01:32:11;;;;;;;0.40;0.40;;;;;;;8.45;100.00;100969.00;5023943;28;20218;-73
2022/10/02 01:34:45;;;;;;;0.40;0.40;;;;;;;8.45;100.00;100974.38;5020212;28;20582;-73
2022/10/02 01:37:11;;;;;;;0.40;0.40;;;;;;;8.47;100.00;100978.56;5038924;28;20473;-72
2022/10/02 01:39:37;;;;;;;0.40;0.40;;;;;;;8.50;100.00;100982.78;5048210;28;20044;-74
2022/10/02 01:42:03;;;;;;;0.40;0.40;;;;;;;8.57;100.00;100968.59;5023870;28;20025;-73
2022/10/02 01:44:29;;;;;;;0.30;0.30;;;;;;;8.66;100.00;100980.19;5029535;28;20077;-73
2022/10/02 01:47:07;;;;;;;0.40;0.40;;;;;;;8.72;100.00;100995.63;5059664;28;20021;-75
2022/10/02 01:50:12;;;;;;;0.40;0.40;;;;;;;8.77;100.00;100995.19;5026789;28;20483;-72
2022/10/02 01:53:02;;;;;;;0.40;0.40;;;;;;;8.83;100.00;101004.41;5041256;28;20391;-75
2022/10/02 01:56:06;;;;;;;0.40;0.40;;;;;;;8.88;100.00;100996.75;5057260;28;20029;-75
2022/10/02 01:59:03;;;;;;;0.40;0.40;;;;;;;8.88;100.00;101002.09;5054317;28;20041;-73
2022/10/02 02:01:35;;;;;;;0.40;0.40;;;;;;;8.65;100.00;100981.19;5009078;28;20156;-74
2022/10/02 02:04:13;;;;;;;0.40;0.40;;;;;;;8.90;100.00;101002.78;5022410;28;20060;-75
2022/10/02 02:06:48;;;;;;;0.40;0.40;;;;;;;8.92;100.00;101017.72;5018029;28;20406;-76
2022/10/02 02:09:26;;;;;;;0.40;0.40;;;;;;;8.78;100.00;101016.44;5024306;28;20040;-74
2022/10/02 02:12:23;;;;;;;0.40;0.40;;;;;;;8.80;100.00;101021.66;5033777;28;20053;-75
2022/10/02 02:14:57;;;;;;;0.30;0.30;;;;;;;8.83;100.00;101031.22;5023200;28;20045;-75
2022/10/02 02:17:26;;;;;;;0.40;0.40;;;;;;;8.88;100.00;101036.97;5027623;28;20046;-76
2022/10/02 02:20:02;;;;;;;0.40;0.40;;;;;;;8.83;100.00;101040.13;5049789;28;20045;-76
2022/10/02 02:22:34;;;;;;;0.70;0.70;;;;;;;8.74;100.00;101055.31;5027136;28;20044;-76
2022/10/02 02:25:07;;;;;;;0.40;0.40;;;;;;;8.68;100.00;101061.31;5061606;28;20477;-74
2022/10/02 02:27:41;;;;;;;0.40;0.40;;;;;;;8.67;100.00;101070.34;5028808;28;21875;-73
2022/10/02 02:30:10;;;;;;;0.30;0.30;;;;;;;8.70;100.00;101083.41;5015538;28;20041;-73
2022/10/02 02:32:41;;;;;;;0.40;0.40;;;;;;;8.79;100.00;101071.78;5015916;28;20037;-73
2022/10/02 02:35:16;;;;;;;0.40;0.40;;;;;;;8.78;100.00;101048.63;5030443;28;20067;-74
2022/10/02 02:37:43;;;;;;;0.32;0.32;;;;;;;8.80;100.00;101049.31;5022028;28;20519;-76
2022/10/02 02:40:13;;;;;;;0.40;0.40;;;;;;;8.75;100.00;101051.63;5052750;28;20110;-75
2022/10/02 02:42:46;;;;;;;0.40;0.40;;;;;;;8.90;100.00;101076.03;5028134;28;20052;-76
2022/10/02 02:45:19;;;;;;;0.50;0.50;;;;;;;8.94;100.00;101068.50;5015587;28;20473;-77
2022/10/02 02:47:51;;;;;;;0.40;0.40;;;;;;;8.88;100.00;101078.03;5026842;28;20037;-75
2022/10/02 02:50:18;;;;;;;0.30;0.30;;;;;;;8.87;100.00;101091.59;5031775;28;20121;-75
2022/10/02 02:52:50;;;;;;;0.30;0.30;;;;;;;8.81;100.00;101087.69;5028852;28;20029;-76
2022/10/02 02:55:30;;;;;;;0.38;0.38;;;;;;;8.49;100.00;101058.78;5040449;28;20064;-75
2022/10/02 02:58:17;;;;;;;0.30;0.30;;;;;;;8.55;100.00;101087.69;5029393;28;20406;-74
2022/10/02 03:00:43;;;;;;;0.43;0.43;;;;;;;8.34;100.00;101086.13;5038024;28;20061;-75
2022/10/02 03:03:09;;;;;;;0.47;0.47;;;;;;;8.16;100.00;101082.59;5021061;28;20057;-75
2022/10/02 03:05:38;;;;;;;0.40;0.40;;;;;;;8.08;100.00;101099.41;5048995;28;20035;-75
2022/10/02 03:08:08;;;;;;;0.43;0.43;;;;;;;7.91;100.00;101113.59;5051368;28;20360;-73
2022/10/02 03:10:47;;;;;;;0.40;0.40;;;;;;;7.79;100.00;101110.28;5022517;28;20040;-73
2022/10/02 03:13:50;;;;;;;0.40;0.40;;;;;;;7.66;100.00;101117.81;5038449;28;20044;-74
2022/10/02 03:16:44;;;;;;;0.40;0.40;;;;;;;7.52;100.00;101126.34;5041164;28;20037;-72
2022/10/02 03:19:15;;;;;;;0.30;0.30;;;;;;;7.30;100.00;101120.34;5030931;28;20493;-74
2022/10/02 03:22:04;;;;;;;0.40;0.40;;;;;;;7.21;100.00;101114.03;5048960;28;20033;-75
2022/10/02 03:24:51;;;;;;;0.30;0.30;;;;;;;7.07;100.00;101122.53;5028029;28;20167;-74
2022/10/02 03:27:30;;;;;;;0.40;0.40;;;;;;;7.05;100.00;101138.72;5023622;28;20037;-75
2022/10/02 03:30:05;;;;;;;0.40;0.40;;;;;;;7.12;100.00;101138.13;5030464;28;20090;-74
2022/10/02 03:32:31;;;;;;;0.40;0.40;;;;;;;7.18;100.00;101127.72;5017023;28;20044;-77
2022/10/02 03:34:57;;;;;;;0.32;0.32;;;;;;;7.19;100.00;101131.22;5047070;28;20030;-75
2022/10/02 03:37:24;;;;;;;0.40;0.40;;;;;;;7.22;100.00;101141.63;5031467;28;20043;-75
2022/10/02 03:39:51;;;;;;;0.40;0.40;;;;;;;7.08;100.00;101136.75;5029703;28;20533;-75
2022/10/02 03:42:20;;;;;;;0.40;0.40;;;;;;;6.79;100.00;101133.13;5026485;28;20064;-76
2022/10/02 03:44:46;;;;;;;0.40;0.40;;;;;;;6.74;100.00;101142.53;5034776;28;20132;-76
2022/10/02 03:47:12;;;;;;;0.40;0.40;;;;;;;6.58;100.00;101141.28;5039632;28;20151;-75
2022/10/02 03:49:39;;;;;;;0.40;0.40;;;;;;;6.53;100.00;101146.19;5040071;28;20387;-73
2022/10/02 03:52:05;;;;;;;0.40;0.40;;;;;;;6.48;100.00;101148.44;5029564;28;20037;-74
2022/10/02 03:54:34;;;;;;;0.40;0.40;;;;;;;6.43;100.00;101152.53;5046047;28;20364;-74
2022/10/02 03:57:06;;;;;;;0.40;0.40;;;;;;;6.48;100.00;101159.13;5031290;28;20032;-74
2022/10/02 03:59:44;;;;;;;0.40;0.40;;;;;;;6.57;100.00;101163.66;5024622;28;20377;-74
2022/10/02 04:02:30;;;;;;;0.43;0.43;;;;;;;6.63;100.00;101166.75;5027251;28;20041;-75
2022/10/02 04:05:22;;;;;;;0.40;0.40;;;;;;;6.55;100.00;101162.94;5040267;28;20064;-74
2022/10/02 04:07:50;;;;;;;0.50;0.50;;;;;;;6.35;100.00;101180.78;5034783;28;20045;-74
2022/10/02 04:10:22;;;;;;;0.40;0.40;;;;;;;6.22;100.00;101176.66;5028121;28;20037;-77
2022/10/02 04:12:51;;;;;;;0.40;0.40;;;;;;;6.13;100.00;101173.00;5029116;28;20152;-75
2022/10/02 04:15:35;;;;;;;0.40;0.40;;;;;;;6.22;100.00;101180.19;5031424;28;20446;-74
2022/10/02 04:18:14;;;;;;;0.40;0.40;;;;;;;6.42;100.00;101194.41;5040646;28;20095;-74
2022/10/02 04:20:48;;;;;;;0.40;0.40;;;;;;;6.77;100.00;101201.94;5033361;28;20411;-73
2022/10/02 04:23:27;;;;;;;0.40;0.40;;;;;;;7.09;100.00;101213.28;5033753;28;22277;-74
2022/10/02 04:26:04;;;;;;;0.40;0.40;;;;;;;7.40;100.00;101236.19;5016800;28;20570;-73
2022/10/02 04:28:38;;;;;;;0.40;0.40;;;;;;;7.81;100.00;101222.59;5024548;28;20037;-74
2022/10/02 04:31:10;;;;;;;0.40;0.40;;;;;;;8.10;100.00;101217.94;5036329;28;20044;-74
2022/10/02 04:33:36;;;;;;;0.40;0.40;;;;;;;8.26;100.00;101214.63;5046518;28;20033;-75
2022/10/02 04:36:31;;;;;;;0.40;0.40;;;;;;;8.32;100.00;101219.38;5009559;28;20479;-73
2022/10/02 04:39:07;;;;;;;0.40;0.40;;;;;;;8.35;100.00;101227.13;5043379;28;20395;-73
2022/10/02 04:41:48;;;;;;;0.40;0.40;;;;;;;8.36;100.00;101234.19;5023270;28;20036;-73
2022/10/02 04:44:14;;;;;;;0.40;0.40;;;;;;;8.34;100.00;101243.34;5021270;28;20464;-74
2022/10/02 04:46:43;;;;;;;0.32;0.32;;;;;;;8.36;100.00;101244.91;5024407;28;20329;-73
2022/10/02 04:49:33;;;;;;;0.40;0.40;;;;;;;8.37;100.00;101245.72;5012418;28;20041;-74
2022/10/02 04:52:23;;;;;;;0.30;0.30;;;;;;;8.39;100.00;101246.47;5031813;28;20037;-73
2022/10/02 04:54:58;;;;;;;0.40;0.40;;;;;;;8.43;100.00;101247.00;5031893;28;20167;-74
2022/10/02 04:57:31;;;;;;;0.40;0.40;;;;;;;8.46;100.00;101242.16;5024378;28;20064;-74
2022/10/02 05:00:13;;;;;;;0.40;0.40;;;;;;;8.43;100.00;101238.97;5042650;28;20131;-73
2022/10/02 05:02:55;;;;;;;0.40;0.40;;;;;;;8.43;100.00;101237.13;5024783;28;20071;-74
2022/10/02 05:05:42;;;;;;;0.40;0.40;;;;;;;8.57;100.00;101246.47;5044506;28;20351;-72
2022/10/02 05:08:14;;;;;;;0.35;0.35;;;;;;;8.56;100.00;101247.47;5030816;28;20107;-73
2022/10/02 05:10:49;;;;;;;0.40;0.40;;;;;;;8.55;100.00;101259.22;5036563;28;20030;-74
2022/10/02 05:13:42;;;;;;;0.40;0.40;;;;;;;8.49;100.00;101262.47;5048846;28;20043;-73
2022/10/02 05:16:26;;;;;;;0.30;0.30;;;;;;;8.41;100.00;101270.41;5039921;28;20475;-73
2022/10/02 05:18:52;;;;;;;0.40;0.40;;;;;;;8.27;100.00;101272.56;5047965;28;20033;-72
2022/10/02 05:21:47;;;;;;;0.40;0.40;;;;;;;8.09;100.00;101277.00;5023202;28;20067;-73
2022/10/02 05:24:42;;;;;;;0.40;0.40;;;;;;;7.77;100.00;101278.25;5030889;28;20029;-72
2022/10/02 05:27:27;;;;;;;0.40;0.40;;;;;;;7.47;100.00;101272.09;5018546;28;20076;-74
2022/10/02 05:30:04;;;;;;;0.30;0.30;;;;;;;7.35;100.00;101283.94;5042631;28;20032;-74
2022/10/02 05:32:51;;;;;;;0.40;0.40;;;;;;;7.13;100.00;101285.06;5012469;28;20041;-74
2022/10/02 05:35:30;;;;;;;0.38;0.38;;;;;;;6.98;100.00;101292.66;5030030;28;20499;-75
2022/10/02 05:38:05;;;;;;;0.40;0.40;;;;;;;6.96;100.00;101297.31;5032947;28;20488;-73
2022/10/02 05:40:59;;;;;;;0.40;0.40;;;;;;;7.13;100.00;101302.97;5032066;28;20513;-74
2022/10/02 05:43:45;;;;;;;0.40;0.40;;;;;;;7.28;100.00;101312.25;5047103;28;20024;-76
2022/10/02 05:46:21;;;;;;;0.40;0.40;;;;;;;7.37;100.00;101302.53;5010544;28;20501;-75
2022/10/02 05:48:59;;;;;;;0.40;0.40;;;;;;;7.45;100.00;101308.84;5018272;28;20426;-75
2022/10/02 05:51:35;;;;;;;0.30;0.30;;;;;;;7.52;100.00;101317.19;5015014;28;20029;-75
2022/10/02 05:54:20;;;;;;;0.40;0.40;;;;;;;7.51;100.00;101318.16;5019152;28;20044;-74
2022/10/02 05:56:51;;;;;;;0.40;0.40;;;;;;;7.40;100.00;101316.47;5029111;28;20275;-74
2022/10/02 05:59:36;;;;;;;0.40;0.40;;;;;;;7.30;100.00;101328.16;5017252;28;20037;-74
2022/10/02 06:02:28;;;;;;;0.40;0.40;;;;;;;7.18;100.00;101327.47;5028675;28;20553;-74
2022/10/02 06:05:02;;;;;;;0.50;0.50;;;;;;;7.08;100.00;101332.78;5029388;28;20562;-74
2022/10/02 06:07:29;;;;;;;0.40;0.40;;;;;;;6.96;100.00;101340.09;5026322;28;20045;-73
2022/10/02 06:10:02;;;;;;;0.40;0.40;;;;;;;6.86;100.00;101338.41;5024964;28;20037;-75
2022/10/02 06:12:36;;;;;;;0.50;0.50;;;;;;;6.67;100.00;101342.72;5046476;28;20090;-73
2022/10/02 06:15:18;;;;;;;0.40;0.40;;;;;;;6.58;100.00;101357.69;5040853;28;20041;-74
2022/10/02 06:18:05;;;;;;;0.50;0.50;;;;;;;6.42;100.00;101352.03;5034806;28;20033;-72
2022/10/02 06:20:39;;;;;;;0.50;0.50;;;;;;;6.32;100.00;101361.81;5039278;28;20044;-74
2022/10/02 06:23:24;;;;;;;0.40;0.40;;;;;;;6.32;100.00;101359.13;5024341;28;20060;-73
2022/10/02 06:25:57;;;;;;;0.40;0.40;;;;;;;6.54;100.00;101372.31;5031375;28;20156;-74
2022/10/02 06:28:24;;;;;;;0.40;0.40;;;;;;;6.78;100.00;101374.66;5032594;28;20032;-75
2022/10/02 06:31:09;;;;;;;0.50;0.50;;;;;;;7.07;100.00;101371.22;5014346;28;20068;-76
2022/10/02 06:33:35;;;;;;;0.40;0.40;;;;;;;7.31;100.00;101376.19;5011449;28;20076;-75
2022/10/02 06:36:20;;;;;;;0.40;0.40;;;;;;;7.51;100.00;101382.38;5011281;28;20482;-75
2022/10/02 06:38:47;;;;;;;0.40;0.40;;;;;;;7.64;100.00;101388.28;5020404;28;20475;-75
2022/10/02 06:41:19;;;;;;;0.40;0.40;;;;;;;7.62;100.00;101387.59;5030720;28;20107;-75
2022/10/02 06:43:44;;;;;;;0.40;0.40;;;;;;;7.65;100.00;101402.53;5010929;28;20430;-75
2022/10/02 06:46:32;;;;;;;0.40;0.40;;;;;;;7.72;100.00;101403.63;5045312;28;20021;-76
2022/10/02 06:49:03;;;;;;;0.30;0.30;;;;;;;7.76;100.00;101386.31;5042058;28;20107;-74
2022/10/02 06:51:48;;;;;;;0.40;0.40;;;;;;;7.93;100.00;101407.00;5037527;28;20203;-74
2022/10/02 06:54:23;;;;;;;0.45;0.45;;;;;;;8.03;100.00;101403.47;5039657;28;20045;-76
2022/10/02 06:57:10;;;;;;;0.40;0.40;;;;;;;8.13;100.00;101405.16;5029579;28;20037;-74
2022/10/02 06:59:59;;;;;;;0.40;0.40;;;;;;;8.12;100.00;101408.84;5044773;28;20025;-75
2022/10/02 07:02:43;;;;;;;0.40;0.40;;;;;;;8.03;100.00;101416.88;5033463;28;20041;-74
2022/10/02 07:05:33;;;;;;;0.40;0.40;;;;;;;7.78;100.00;101413.81;5030654;28;20158;-74
2022/10/02 07:08:24;;;;;;;0.40;0.40;;;;;;;7.59;100.00;101417.31;5050948;28;20033;-74
2022/10/02 07:11:31;;;;;;;0.40;0.40;;;;;;;7.53;100.00;101427.72;5048163;28;20032;-75
2022/10/02 07:14:16;;;;;;;0.40;0.40;;;;;;;7.56;100.00;101435.47;5038868;28;20538;-73
2022/10/02 07:16:45;;;;;;;0.40;0.40;;;;;;;7.58;100.00;101425.47;5027464;28;20044;-75
2022/10/02 07:19:21;;;;;;;0.40;0.40;;;;;;;7.64;100.00;101443.66;5046718;28;20020;-75
2022/10/02 07:22:24;;;;;;;0.40;0.40;;;;;;;7.76;100.00;101463.97;5032529;28;20059;-74
2022/10/02 07:25:27;;;;;;;0.40;0.40;;;;;;;7.80;100.00;101465.34;5038779;28;20474;-75
2022/10/02 07:28:23;;;;;;;0.40;0.40;;;;;;;7.91;100.00;101483.09;5025382;28;20120;-74
2022/10/02 07:31:29;;;;;;;0.40;0.40;;;;;;;7.96;100.00;101485.38;5017780;28;20086;-74
2022/10/02 07:34:06;;;;;;;0.40;0.40;;;;;;;8.08;100.00;101489.59;5032337;28;20048;-75
2022/10/02 07:36:57;;;;;;;0.40;0.40;;;;;;;8.22;100.00;101499.03;5026930;28;20040;-75
2022/10/02 07:39:51;;;;;;;0.40;0.40;;;;;;;8.37;100.00;101513.69;5031027;28;20037;-75
2022/10/02 07:42:24;;;;;;;0.40;0.40;;;;;;;8.50;100.00;101508.06;5030797;28;20082;-73
2022/10/02 07:44:57;;;;;;;0.40;0.40;;;;;;;8.68;100.00;101517.06;5048705;28;20414;-74
2022/10/02 07:47:37;;;;;;;0.40;0.40;;;;;;;8.84;100.00;101510.22;5015277;28;20124;-76
2022/10/02 07:50:22;;;;;;;0.40;0.40;;;;;;;9.16;100.00;101528.63;5047802;28;20040;-75
2022/10/02 07:52:59;;;;;;;0.47;0.47;;;;;;;9.48;100.00;101520.13;5051443;28;20403;-73
2022/10/02 07:55:25;;;;;;;0.40;0.40;;;;;;;9.82;100.00;101519.50;5032287;28;20079;-74
2022/10/02 07:58:15;;;;;;;0.40;0.40;;;;;;;9.97;100.00;101527.84;5018044;28;20483;-74
2022/10/02 08:00:53;;;;;;;0.40;0.40;;;;;;;10.23;100.00;101530.63;5018032;28;20053;-74
2022/10/02 08:03:23;;;;;;;0.50;0.50;;;;;;;10.32;100.00;101532.44;5030790;28;20044;-74
2022/10/02 08:05:52;;;;;;;0.45;0.45;;;;;;;11.73;100.00;101536.56;5029868;28;20028;-73
2022/10/02 08:08:38;;;;;;;0.60;0.60;;;;;;;12.21;100.00;101545.75;5011690;28;20071;-74
2022/10/02 08:11:15;;;;;;;0.70;0.70;;;;;;;14.21;100.00;101542.09;5010309;28;20040;-74
2022/10/02 08:13:48;;;;;;;0.60;0.60;;;;;;;15.63;96.55;101545.72;5026723;28;20063;-73
2022/10/02 08:16:14;;;;;;;;;;;;;;;16.43;88.89;101558.31;5044090;28;20029;-74
2022/10/02 08:18:57;;;;;;;0.60;0.60;;;;;;;17.19;85.94;101556.81;5021326;28;19923;-76
2022/10/02 08:21:23;;;;;;;0.60;0.60;;;;;;;17.74;85.02;101563.13;5044336;28;20027;-73
2022/10/02 08:23:55;;;;;;;0.60;0.60;;;;;;;18.36;84.82;101564.75;5029853;28;20041;-74
2022/10/02 08:26:31;;;;;;;0.60;0.60;;;;;;;18.83;79.67;101573.81;5051311;28;20098;-73
2022/10/02 08:29:04;;;;;;;0.60;0.60;;;;;;;19.10;80.59;101581.97;5046422;28;20064;-75
2022/10/02 08:31:31;;;;;;;0.60;0.60;;;;;;;19.66;79.85;101572.38;5019698;28;20519;-74
2022/10/02 08:33:59;;;;;;;0.70;0.70;;;;;;;20.16;77.94;101587.06;5029683;28;20475;-74
2022/10/02 08:36:40;;;;;;;0.80;0.80;;;;;;;20.84;77.04;101591.00;5041652;28;20028;-77
2022/10/02 08:39:05;;;;;;;0.70;0.70;;;;;;;21.69;75.80;101577.47;5049639;28;20036;-74
2022/10/02 08:41:37;;;;;;;0.30;0.30;;;;;;;19.88;82.72;101583.88;5041480;28;20449;-73
2022/10/02 08:44:21;;;;;;;0.50;0.50;;;;;;;17.79;94.22;101596.03;5044388;28;20490;-77
2022/10/02 08:47:20;;;;;;;0.40;0.40;;;;;;;16.64;100.00;101614.44;5063065;28;20466;-78
2022/10/02 08:50:23;;;;;;;0.45;0.45;;;;;;;15.79;100.00;101626.88;5050404;28;20035;-77
2022/10/02 08:53:08;;;;;;;0.40;0.40;;;;;;;14.85;100.00;101642.75;5043952;28;20360;-77
2022/10/02 08:55:37;;;;;;;0.43;0.43;;;;;;;14.29;100.00;101620.50;5045597;28;20148;-78
2022/10/02 08:58:28;;;;;;;0.40;0.40;;;;;;;14.36;100.00;101651.22;5034779;28;20111;-79
2022/10/02 09:01:12;;;;;;;0.40;0.40;;;;;;;14.63;100.00;101662.56;5008924;28;20132;-77
2022/10/02 09:03:53;;;;;;;0.40;0.40;;;;;;;14.38;100.00;101659.16;5048817;28;20033;-78
2022/10/02 09:06:38;;;;;;;0.40;0.40;;;;;;;14.06;100.00;101655.63;5051649;28;20068;-78
2022/10/02 09:09:52;;;;;;;1.02;1.02;;;;;;;13.81;100.00;101652.16;5048686;28;20083;-77
2022/10/02 09:12:57;;;;;;;0.50;0.50;;;;;;;13.78;100.00;101642.53;5030406;28;20056;-77
2022/10/02 09:15:25;;;;;;;0.47;0.47;;;;;;;13.84;100.00;101649.13;5041979;28;20513;-77
2022/10/02 09:18:16;;;;;;;0.40;0.40;;;;;;;13.99;100.00;101652.75;5050523;28;20041;-77
2022/10/02 09:21:14;;;;;;;0.40;0.40;;;;;;;14.20;100.00;101667.53;5029920;28;20082;-77
2022/10/02 09:24:16;;;;;;;0.50;0.50;;;;;;;14.33;100.00;101675.09;5046851;28;21511;-77
2022/10/02 09:27:03;;;;;;;0.50;0.50;;;;;;;14.55;100.00;101676.97;4977814;28;20250;-77
2022/10/02 09:30:06;;;;;;;0.50;0.50;;;;;;;14.80;100.00;101680.38;5049748;28;20037;-77
2022/10/02 09:33:11;;;;;;;0.60;0.60;;;;;;;14.78;100.00;101678.88;5049744;28;20037;-77
2022/10/02 09:35:53;;;;;;;0.43;0.43;;;;;;;14.61;100.00;101683.56;5028071;28;20040;-78
2022/10/02 09:38:20;;;;;;;;;;;;;;;17.15;100.00;101684.09;5030850;28;20034;-77
2022/10/02 09:41:01;;;;;;;0.50;0.50;;;;;;;19.02;94.02;101688.50;5053389;28;20061;-77
2022/10/02 09:43:35;;;;;;;0.52;0.52;;;;;;;18.77;92.79;101691.81;5063673;28;20337;-77
2022/10/02 09:46:25;;;;;;;1.02;0.77;;;;;;;18.43;93.86;101698.22;5051504;28;20056;-78
2022/10/02 09:48:58;;;;;;;0.50;0.50;;;;;;;18.62;92.75;101707.47;5048021;28;20499;-78
2022/10/02 09:51:28;;;;;;;0.65;0.65;;;;;;;18.60;91.92;101710.44;5054863;28;20040;-78
2022/10/02 09:54:23;;;;;;;4.35;1.63;;;;;;;20.79;87.43;101716.56;5054394;28;20036;-77
2022/10/02 09:57:18;;;;;;;2.55;1.00;;;;;;;21.02;85.37;101724.19;5051776;28;20036;-77
2022/10/02 10:00:11;;;;;;;3.05;0.85;;;;;;;19.92;87.97;101716.09;5050614;28;20091;-77
2022/10/02 10:02:54;;;;;;;;;;;;;;;19.07;93.89;101724.97;5039265;28;20385;-76
2022/10/02 10:05:46;;;;;;;5.40;1.30;;;;;;;18.59;98.65;101725.06;5050558;28;22143;-76
2022/10/02 10:08:19;;;;;;;;;;;;;;;18.77;100.00;101724.53;5049775;28;20041;-77
2022/10/02 10:10:54;;;;;;;5.25;1.83;;;;;;;19.19;98.94;101727.09;5031352;28;20382;-76
2022/10/02 10:13:59;;;;;;;4.05;1.20;;;;;;;19.95;93.68;101715.66;5015315;28;20033;-78
2022/10/02 10:16:48;;;;;;;2.10;1.30;;;;;;;20.30;91.99;101729.00;5050237;28;20061;-78
2022/10/02 10:20:05;;;;;;;5.93;1.48;;;;;;;24.77;74.11;101726.41;5028141;28;20048;-76
2022/10/02 10:23:05;;;;;;;2.13;1.60;;;;;;;26.70;69.15;101720.34;5033542;28;20137;-76
2022/10/02 10:25:39;;;;;;;5.22;0.98;;;;;;;25.57;73.19;101718.09;5047163;28;20383;-76
2022/10/02 10:28:36;;;;;;;5.03;1.30;;;;;;;23.78;79.17;101720.22;5049953;28;20060;-77
2022/10/02 10:31:22;;;;;;;4.30;1.45;;;;;;;23.39;84.47;101720.69;5050275;28;20305;-77
2022/10/02 10:34:27;;;;;;;4.15;1.33;;;;;;;24.15;76.22;101718.00;5046313;28;20472;-77
2022/10/02 10:39:52;;;;;;;6.82;1.83;;;;;;;25.98;65.50;101725.00;5043276;28;20037;-77
2022/10/02 10:42:34;;;;;;;4.05;1.55;;;;;;;26.94;64.02;101731.91;5032213;28;20037;-77
2022/10/02 10:45:40;;;;;;;8.10;2.30;;;;;;;27.35;63.61;101737.81;5042406;28;20039;-76
2022/10/02 10:48:19;;;;;;;2.88;1.10;;;;;;;27.94;62.38;101737.63;5040255;28;20407;-76
2022/10/02 10:50:49;;;;;;;3.90;1.30;;;;;;;28.18;59.28;101729.75;5043259;28;20101;-77
2022/10/02 10:53:43;;;;;;;3.15;1.42;;;;;;;28.19;56.59;101734.16;5028310;28;20033;-77
2022/10/02 10:56:11;;;;;;;5.13;1.70;;;;;;;27.90;56.34;101742.06;5050376;28;20061;-77
2022/10/02 10:58:42;;;;;;;1.75;1.27;;;;;;;27.81;57.75;101736.22;5048504;28;20036;-77
2022/10/02 11:01:17;;;;;;;1.92;1.33;;;;;;;27.82;58.21;101740.63;5015282;28;20044;-77
2022/10/02 11:04:02;;;;;;;3.53;1.33;;;;;;;28.70;58.42;101742.63;5032326;28;20132;-78
2022/10/02 11:07:02;;;;;;;6.68;1.50;;;;;;;29.27;58.67;101754.63;5070311;28;20033;-79
2022/10/02 11:09:33;;;;;;;4.53;1.02;;;;;;;28.90;58.14;101752.91;5046443;28;20490;-79
2022/10/02 11:12:38;;;;;;;4.57;1.40;;;;;;;28.75;55.54;101761.19;5033245;28;20037;-80
2022/10/02 11:15:17;;;;;;;5.28;1.35;;;;;;;28.70;46.97;101763.94;5029953;28;20067;-79
2022/10/02 11:17:49;;;;;;;2.53;0.80;;;;;;;26.99;60.45;101751.25;5049194;28;20029;-81
2022/10/02 11:20:49;;;;;;;3.78;1.20;;;;;;;28.10;54.30;101754.28;5049416;28;20033;-79
2022/10/02 11:23:36;;;;;;;6.03;1.00;;;;;;;25.17;60.03;101753.00;5017239;28;20039;-79
2022/10/02 11:26:05;;;;;;;3.95;0.90;;;;;;;23.24;63.29;101764.22;5034528;28;20106;-80
2022/10/02 11:28:40;;;;;;;2.65;1.25;;;;;;;21.37;69.36;101754.63;5050641;28;20033;-81
2022/10/02 11:31:33;;;;;;;3.55;1.10;;;;;;;21.53;70.18;101758.72;5066579;28;20032;-79
2022/10/02 11:34:08;;;;;;;4.00;1.85;;;;;;;22.39;70.42;101757.81;5048520;28;20124;-78
2022/10/02 11:36:56;;;;;;;3.08;1.50;;;;;;;21.18;69.99;101761.09;5029371;28;20064;-80
2022/10/02 11:39:46;;;;;;;3.95;0.85;;;;;;;20.07;69.45;101762.28;5050791;28;20025;-80
2022/10/02 11:42:20;;;;;;;3.70;1.00;;;;;;;19.24;75.99;101762.75;5035266;28;20032;-78
2022/10/02 11:44:46;;;;;;;5.43;1.63;;;;;;;18.66;76.30;101772.25;5031482;28;20075;-80
2022/10/02 11:47:48;;;;;;;9.13;4.20;;;;;;;18.09;78.04;101773.47;5049133;28;20075;-78
2022/10/02 11:50:49;;;;;;;4.28;1.23;;;;;;;17.67;79.83;101775.25;5055274;28;20037;-80
2022/10/02 11:53:33;;;;;;;4.25;1.10;;;;;;;17.56;81.42;101778.50;5032267;28;20036;-80
2022/10/02 11:56:21;;;;;;;7.28;3.28;;;;;;;17.55;80.15;101785.00;5049648;28;20128;-80
2022/10/02 11:59:01;;;;;;;3.42;1.00;;;;;;;17.71;78.59;101784.69;5045619;28;20024;-80
2022/10/02 12:01:36;;;;;;;5.05;1.55;;;;;;;17.92;75.19;101781.09;5045944;28;20048;-78
2022/10/02 12:04:28;;;;;;;3.75;1.30;;;;;;;18.36;72.37;101771.69;5034514;28;20048;-80
2022/10/02 12:07:31;;;;;;;6.13;2.90;;;;;;;22.50;54.80;101789.09;5043042;28;20045;-80
2022/10/02 12:10:38;;;;;;;5.15;2.63;;;;;;;20.60;58.58;101801.16;5048228;28;20040;-81
2022/10/02 12:13:29;;;;;;;2.45;0.88;;;;;;;19.21;61.31;101798.59;5068974;22;20057;-81
2022/10/02 12:16:22;;;;;;;3.70;0.90;;;;;;;18.27;64.36;101800.16;5008178;28;20478;-80
2022/10/02 12:19:00;;;;;;;3.17;0.88;;;;;;;17.51;66.68;101795.41;5029127;28;20045;-80
2022/10/02 12:27:22;;;;;;;2.75;0.60;;;;;;;16.36;74.27;101817.97;5028967;28;20089;-78
2022/10/02 12:30:29;;;;;;;1.38;0.80;;;;;;;16.33;74.27;101833.78;5010042;28;20107;-79
2022/10/02 12:33:12;;;;;;;4.07;0.98;;;;;;;16.41;75.32;101825.56;5030040;28;20128;-79